sensor_id;sensor_type;location;lat;lon;timestamp;temperature;humidity
20380;DHT22;10349;48.666;8.948;2023-02-28T00:01:26;-2.70;99.90
20380;DHT22;10349;48.666;8.948;2023-02-28T00:03:52;-2.80;99.90
20380;DHT22;10349;48.666;8.948;2023-02-28T00:06:19;-2.80;99.90
20380;DHT22;10349;48.666;8.948;2023-02-28T00:08:45;-2.70;99.90
20380;DHT22;10349;48.666;8.948;2023-02-28T00:11:13;-2.80;99.90
20380;DHT22;10349;48.666;8.948;2023-02-28T00:13:44;-2.80;99.90
20380;DHT22;10349;48.666;8.948;2023-02-28T00:16:14;-2.80;99.90
20380;DHT22;10349;48.666;8.948;2023-02-28T00:18:41;-2.90;99.90
20380;DHT22;10349;48.666;8.948;2023-02-28T00:21:07;-3.00;99.90
20380;DHT22;10349;48.666;8.948;2023-02-28T00:23:34;-3.10;99.90
20380;DHT22;10349;48.666;8.948;2023-02-28T00:26:00;-3.20;99.90
20380;DHT22;10349;48.666;8.948;2023-02-28T00:28:26;-3.20;99.90
20380;DHT22;10349;48.666;8.948;2023-02-28T00:30:51;-3.20;99.90
20380;DHT22;10349;48.666;8.948;2023-02-28T00:33:17;-3.30;99.90
20380;DHT22;10349;48.666;8.948;2023-02-28T00:35:43;-3.30;99.90
20380;DHT22;10349;48.666;8.948;2023-02-28T00:38:16;-3.40;99.90
20380;DHT22;10349;48.666;8.948;2023-02-28T00:40:41;-3.40;99.90
20380;DHT22;10349;48.666;8.948;2023-02-28T00:43:07;-3.50;99.90
20380;DHT22;10349;48.666;8.948;2023-02-28T00:45:33;-3.60;99.90
20380;DHT22;10349;48.666;8.948;2023-02-28T00:47:58;-3.50;99.90
20380;DHT22;10349;48.666;8.948;2023-02-28T00:50:24;-3.50;99.90
20380;DHT22;10349;48.666;8.948;2023-02-28T00:52:51;-3.60;99.90
20380;DHT22;10349;48.666;8.948;2023-02-28T00:55:17;-3.60;99.90
20380;DHT22;10349;48.666;8.948;2023-02-28T00:57:43;-3.70;99.90
20380;DHT22;10349;48.666;8.948;2023-02-28T01:00:10;-3.70;99.90
20380;DHT22;10349;48.666;8.948;2023-02-28T01:02:36;-3.70;99.90
20380;DHT22;10349;48.666;8.948;2023-02-28T01:05:02;-3.70;99.90
20380;DHT22;10349;48.666;8.948;2023-02-28T01:07:29;-3.70;99.90
20380;DHT22;10349;48.666;8.948;2023-02-28T01:09:55;-3.70;99.90
20380;DHT22;10349;48.666;8.948;2023-02-28T01:12:20;-3.70;99.90
20380;DHT22;10349;48.666;8.948;2023-02-28T01:14:46;-3.70;99.90
20380;DHT22;10349;48.666;8.948;2023-02-28T01:17:12;-3.60;99.90
20380;DHT22;10349;48.666;8.948;2023-02-28T01:19:38;-3.70;99.90
20380;DHT22;10349;48.666;8.948;2023-02-28T01:22:05;-3.70;99.90
20380;DHT22;10349;48.666;8.948;2023-02-28T01:24:31;-3.70;99.90
20380;DHT22;10349;48.666;8.948;2023-02-28T01:26:57;-3.80;99.90
20380;DHT22;10349;48.666;8.948;2023-02-28T01:29:23;-3.80;99.90
20380;DHT22;10349;48.666;8.948;2023-02-28T01:31:50;-3.80;99.90
20380;DHT22;10349;48.666;8.948;2023-02-28T01:34:16;-3.80;99.90
20380;DHT22;10349;48.666;8.948;2023-02-28T01:36:46;-3.80;99.90
20380;DHT22;10349;48.666;8.948;2023-02-28T01:39:11;-3.80;99.90
20380;DHT22;10349;48.666;8.948;2023-02-28T01:41:39;-3.80;99.90
20380;DHT22;10349;48.666;8.948;2023-02-28T01:47:10;-3.80;99.90
20380;DHT22;10349;48.666;8.948;2023-02-28T01:49:36;-3.80;99.90
20380;DHT22;10349;48.666;8.948;2023-02-28T01:52:02;-3.80;99.90
20380;DHT22;10349;48.666;8.948;2023-02-28T01:54:33;-3.80;99.90
20380;DHT22;10349;48.666;8.948;2023-02-28T01:57:10;-3.80;99.90
20380;DHT22;10349;48.666;8.948;2023-02-28T01:59:42;-3.80;99.90
20380;DHT22;10349;48.666;8.948;2023-02-28T02:02:13;-3.80;99.90
20380;DHT22;10349;48.666;8.948;2023-02-28T02:04:45;-3.80;99.90
20380;DHT22;10349;48.666;8.948;2023-02-28T02:07:14;-3.80;99.90
20380;DHT22;10349;48.666;8.948;2023-02-28T02:09:44;-3.80;99.90
20380;DHT22;10349;48.666;8.948;2023-02-28T02:12:40;-3.80;99.90
20380;DHT22;10349;48.666;8.948;2023-02-28T02:15:16;-3.90;99.90
20380;DHT22;10349;48.666;8.948;2023-02-28T02:17:53;-3.80;99.90
20380;DHT22;10349;48.666;8.948;2023-02-28T02:37:37;-3.90;99.90
20380;DHT22;10349;48.666;8.948;2023-02-28T02:40:19;-3.90;99.90
20380;DHT22;10349;48.666;8.948;2023-02-28T02:42:52;-3.90;99.90
20380;DHT22;10349;48.666;8.948;2023-02-28T02:45:42;-3.90;99.90
20380;DHT22;10349;48.666;8.948;2023-02-28T02:48:12;-3.80;99.90
20380;DHT22;10349;48.666;8.948;2023-02-28T02:50:45;-3.80;99.90
20380;DHT22;10349;48.666;8.948;2023-02-28T02:53:12;-3.80;99.90
20380;DHT22;10349;48.666;8.948;2023-02-28T02:55:43;-3.80;99.90
20380;DHT22;10349;48.666;8.948;2023-02-28T02:58:14;-3.80;99.90
20380;DHT22;10349;48.666;8.948;2023-02-28T03:00:54;-3.80;99.90
20380;DHT22;10349;48.666;8.948;2023-02-28T03:03:22;-3.80;99.90
20380;DHT22;10349;48.666;8.948;2023-02-28T03:05:55;-3.70;99.90
20380;DHT22;10349;48.666;8.948;2023-02-28T03:08:22;-3.70;99.90
20380;DHT22;10349;48.666;8.948;2023-02-28T03:10:56;-3.70;99.90
20380;DHT22;10349;48.666;8.948;2023-02-28T03:16:41;-3.70;99.90
20380;DHT22;10349;48.666;8.948;2023-02-28T03:19:33;-3.70;99.90
20380;DHT22;10349;48.666;8.948;2023-02-28T03:25:09;-3.60;99.90
20380;DHT22;10349;48.666;8.948;2023-02-28T03:30:27;-3.60;99.90
20380;DHT22;10349;48.666;8.948;2023-02-28T03:33:07;-3.60;99.90
20380;DHT22;10349;48.666;8.948;2023-02-28T03:35:56;-3.50;99.90
20380;DHT22;10349;48.666;8.948;2023-02-28T03:38:35;-3.50;99.90
20380;DHT22;10349;48.666;8.948;2023-02-28T03:41:07;-3.50;99.90
20380;DHT22;10349;48.666;8.948;2023-02-28T03:43:40;-3.50;99.90
20380;DHT22;10349;48.666;8.948;2023-02-28T03:46:13;-3.50;99.90
20380;DHT22;10349;48.666;8.948;2023-02-28T03:48:41;-3.50;99.90
20380;DHT22;10349;48.666;8.948;2023-02-28T03:51:10;-3.50;99.90
20380;DHT22;10349;48.666;8.948;2023-02-28T03:53:40;-3.50;99.90
20380;DHT22;10349;48.666;8.948;2023-02-28T03:56:32;-3.50;99.90
20380;DHT22;10349;48.666;8.948;2023-02-28T03:59:12;-3.50;99.90
20380;DHT22;10349;48.666;8.948;2023-02-28T04:01:42;-3.40;99.90
20380;DHT22;10349;48.666;8.948;2023-02-28T04:04:10;-3.40;99.90
20380;DHT22;10349;48.666;8.948;2023-02-28T04:06:36;-3.40;99.90
20380;DHT22;10349;48.666;8.948;2023-02-28T04:09:04;-3.40;99.90
20380;DHT22;10349;48.666;8.948;2023-02-28T04:11:32;-3.40;99.90
20380;DHT22;10349;48.666;8.948;2023-02-28T04:14:00;-3.40;99.90
20380;DHT22;10349;48.666;8.948;2023-02-28T04:16:26;-3.30;99.90
20380;DHT22;10349;48.666;8.948;2023-02-28T04:18:53;-3.30;99.90
20380;DHT22;10349;48.666;8.948;2023-02-28T04:21:19;-3.30;99.90
20380;DHT22;10349;48.666;8.948;2023-02-28T04:23:46;-3.30;99.90
20380;DHT22;10349;48.666;8.948;2023-02-28T04:26:12;-3.30;99.90
20380;DHT22;10349;48.666;8.948;2023-02-28T04:28:38;-3.30;99.90
20380;DHT22;10349;48.666;8.948;2023-02-28T04:31:04;-3.30;99.90
20380;DHT22;10349;48.666;8.948;2023-02-28T04:33:32;-3.30;99.90
20380;DHT22;10349;48.666;8.948;2023-02-28T04:36:02;-3.30;99.90
20380;DHT22;10349;48.666;8.948;2023-02-28T04:38:37;-3.30;99.90
20380;DHT22;10349;48.666;8.948;2023-02-28T04:41:03;-3.30;99.90
20380;DHT22;10349;48.666;8.948;2023-02-28T04:43:29;-3.30;99.90
20380;DHT22;10349;48.666;8.948;2023-02-28T04:45:56;-3.30;99.90
20380;DHT22;10349;48.666;8.948;2023-02-28T04:48:24;-3.30;99.90
20380;DHT22;10349;48.666;8.948;2023-02-28T04:50:51;-3.30;99.90
20380;DHT22;10349;48.666;8.948;2023-02-28T04:53:17;-3.30;99.90
20380;DHT22;10349;48.666;8.948;2023-02-28T04:55:43;-3.30;99.90
20380;DHT22;10349;48.666;8.948;2023-02-28T04:58:09;-3.30;99.90
20380;DHT22;10349;48.666;8.948;2023-02-28T05:00:35;-3.20;99.90
20380;DHT22;10349;48.666;8.948;2023-02-28T05:03:01;-3.30;99.90
20380;DHT22;10349;48.666;8.948;2023-02-28T05:05:26;-3.20;99.90
20380;DHT22;10349;48.666;8.948;2023-02-28T05:07:52;-3.20;99.90
20380;DHT22;10349;48.666;8.948;2023-02-28T05:10:19;-3.20;99.90
20380;DHT22;10349;48.666;8.948;2023-02-28T05:12:45;-3.10;99.90
20380;DHT22;10349;48.666;8.948;2023-02-28T05:15:13;-3.10;99.90
20380;DHT22;10349;48.666;8.948;2023-02-28T05:17:42;-3.10;99.90
20380;DHT22;10349;48.666;8.948;2023-02-28T05:20:09;-3.10;99.90
20380;DHT22;10349;48.666;8.948;2023-02-28T05:22:39;-3.10;99.90
20380;DHT22;10349;48.666;8.948;2023-02-28T05:25:06;-3.10;99.90
20380;DHT22;10349;48.666;8.948;2023-02-28T05:27:32;-3.10;99.90
20380;DHT22;10349;48.666;8.948;2023-02-28T05:29:58;-3.10;99.90
20380;DHT22;10349;48.666;8.948;2023-02-28T05:32:24;-3.20;99.90
20380;DHT22;10349;48.666;8.948;2023-02-28T05:34:50;-3.20;99.90
20380;DHT22;10349;48.666;8.948;2023-02-28T05:37:16;-3.10;99.90
20380;DHT22;10349;48.666;8.948;2023-02-28T05:39:42;-3.10;99.90
20380;DHT22;10349;48.666;8.948;2023-02-28T05:42:08;-3.10;99.90
20380;DHT22;10349;48.666;8.948;2023-02-28T05:44:36;-3.10;99.90
20380;DHT22;10349;48.666;8.948;2023-02-28T05:47:01;-3.10;99.90
20380;DHT22;10349;48.666;8.948;2023-02-28T05:49:27;-3.10;99.90
20380;DHT22;10349;48.666;8.948;2023-02-28T05:51:53;-3.10;99.90
20380;DHT22;10349;48.666;8.948;2023-02-28T05:54:19;-3.10;99.90
20380;DHT22;10349;48.666;8.948;2023-02-28T05:56:46;-3.10;99.90
20380;DHT22;10349;48.666;8.948;2023-02-28T05:59:12;-3.10;99.90
20380;DHT22;10349;48.666;8.948;2023-02-28T06:01:41;-3.10;99.90
20380;DHT22;10349;48.666;8.948;2023-02-28T06:04:09;-3.10;99.90
20380;DHT22;10349;48.666;8.948;2023-02-28T06:06:36;-3.10;99.90
20380;DHT22;10349;48.666;8.948;2023-02-28T06:09:04;-3.10;99.90
20380;DHT22;10349;48.666;8.948;2023-02-28T06:11:31;-3.10;99.90
20380;DHT22;10349;48.666;8.948;2023-02-28T06:13:59;-3.00;99.90
20380;DHT22;10349;48.666;8.948;2023-02-28T06:16:30;-3.10;99.90
20380;DHT22;10349;48.666;8.948;2023-02-28T06:19:01;-3.10;99.90
20380;DHT22;10349;48.666;8.948;2023-02-28T06:21:27;-3.10;99.90
20380;DHT22;10349;48.666;8.948;2023-02-28T06:23:53;-3.10;99.90
20380;DHT22;10349;48.666;8.948;2023-02-28T06:26:19;-3.10;99.90
20380;DHT22;10349;48.666;8.948;2023-02-28T06:28:45;-3.10;99.90
20380;DHT22;10349;48.666;8.948;2023-02-28T06:31:14;-3.10;99.90
20380;DHT22;10349;48.666;8.948;2023-02-28T06:33:42;-3.00;99.90
20380;DHT22;10349;48.666;8.948;2023-02-28T06:36:10;-3.00;99.90
20380;DHT22;10349;48.666;8.948;2023-02-28T06:38:36;-3.00;99.90
20380;DHT22;10349;48.666;8.948;2023-02-28T06:41:04;-3.00;99.90
20380;DHT22;10349;48.666;8.948;2023-02-28T06:43:33;-3.00;99.90
20380;DHT22;10349;48.666;8.948;2023-02-28T06:46:00;-3.00;99.90
20380;DHT22;10349;48.666;8.948;2023-02-28T06:48:27;-3.00;99.90
20380;DHT22;10349;48.666;8.948;2023-02-28T06:51:08;-3.10;99.90
20380;DHT22;10349;48.666;8.948;2023-02-28T06:53:35;-3.10;99.90
20380;DHT22;10349;48.666;8.948;2023-02-28T06:56:08;-3.10;99.90
20380;DHT22;10349;48.666;8.948;2023-02-28T06:58:35;-3.10;99.90
20380;DHT22;10349;48.666;8.948;2023-02-28T07:01:01;-3.10;99.90
20380;DHT22;10349;48.666;8.948;2023-02-28T07:03:27;-3.10;99.90
20380;DHT22;10349;48.666;8.948;2023-02-28T07:05:53;-3.00;99.90
20380;DHT22;10349;48.666;8.948;2023-02-28T07:08:18;-2.90;99.90
20380;DHT22;10349;48.666;8.948;2023-02-28T07:10:44;-3.00;99.90
20380;DHT22;10349;48.666;8.948;2023-02-28T07:13:11;-2.90;99.90
20380;DHT22;10349;48.666;8.948;2023-02-28T07:15:37;-2.90;99.90
20380;DHT22;10349;48.666;8.948;2023-02-28T07:18:03;-2.80;99.90
20380;DHT22;10349;48.666;8.948;2023-02-28T07:20:29;-2.80;99.90
20380;DHT22;10349;48.666;8.948;2023-02-28T07:22:55;-2.80;99.90
20380;DHT22;10349;48.666;8.948;2023-02-28T07:25:26;-2.80;99.90
20380;DHT22;10349;48.666;8.948;2023-02-28T07:27:53;-2.80;99.90
20380;DHT22;10349;48.666;8.948;2023-02-28T07:30:19;-2.70;99.90
20380;DHT22;10349;48.666;8.948;2023-02-28T07:32:45;-2.70;99.90
20380;DHT22;10349;48.666;8.948;2023-02-28T07:35:11;-2.70;99.90
20380;DHT22;10349;48.666;8.948;2023-02-28T07:37:37;-2.70;99.90
20380;DHT22;10349;48.666;8.948;2023-02-28T07:40:04;-2.60;99.90
20380;DHT22;10349;48.666;8.948;2023-02-28T07:42:42;-2.60;99.90
20380;DHT22;10349;48.666;8.948;2023-02-28T07:45:10;-2.50;99.90
20380;DHT22;10349;48.666;8.948;2023-02-28T07:47:41;-2.50;99.90
20380;DHT22;10349;48.666;8.948;2023-02-28T07:50:10;-2.50;99.90
20380;DHT22;10349;48.666;8.948;2023-02-28T07:52:37;-2.50;99.90
20380;DHT22;10349;48.666;8.948;2023-02-28T07:55:04;-2.40;99.90
20380;DHT22;10349;48.666;8.948;2023-02-28T07:57:30;-2.40;99.90
20380;DHT22;10349;48.666;8.948;2023-02-28T07:59:56;-2.40;99.90
20380;DHT22;10349;48.666;8.948;2023-02-28T08:02:22;-2.30;99.90
20380;DHT22;10349;48.666;8.948;2023-02-28T08:04:51;-2.30;99.90
20380;DHT22;10349;48.666;8.948;2023-02-28T08:07:18;-2.30;99.90
20380;DHT22;10349;48.666;8.948;2023-02-28T08:09:47;-2.30;99.90
20380;DHT22;10349;48.666;8.948;2023-02-28T08:12:13;-2.20;99.90
20380;DHT22;10349;48.666;8.948;2023-02-28T08:14:40;-2.20;99.90
20380;DHT22;10349;48.666;8.948;2023-02-28T08:17:06;-2.20;99.90
20380;DHT22;10349;48.666;8.948;2023-02-28T08:19:32;-2.10;99.90
20380;DHT22;10349;48.666;8.948;2023-02-28T08:21:58;-2.10;99.90
20380;DHT22;10349;48.666;8.948;2023-02-28T08:24:24;-2.10;99.90
20380;DHT22;10349;48.666;8.948;2023-02-28T08:26:49;-2.00;99.90
20380;DHT22;10349;48.666;8.948;2023-02-28T08:29:15;-2.00;99.90
20380;DHT22;10349;48.666;8.948;2023-02-28T08:31:41;-1.90;99.90
20380;DHT22;10349;48.666;8.948;2023-02-28T08:34:11;-1.90;99.90
20380;DHT22;10349;48.666;8.948;2023-02-28T08:36:38;-2.00;99.90
20380;DHT22;10349;48.666;8.948;2023-02-28T08:39:04;-2.00;99.90
20380;DHT22;10349;48.666;8.948;2023-02-28T08:41:30;-2.00;99.90
20380;DHT22;10349;48.666;8.948;2023-02-28T08:43:56;-1.90;99.90
20380;DHT22;10349;48.666;8.948;2023-02-28T08:46:23;-1.90;99.90
20380;DHT22;10349;48.666;8.948;2023-02-28T08:48:53;-1.90;99.90
20380;DHT22;10349;48.666;8.948;2023-02-28T08:51:20;-1.90;99.90
20380;DHT22;10349;48.666;8.948;2023-02-28T08:53:53;-1.90;99.90
20380;DHT22;10349;48.666;8.948;2023-02-28T08:56:20;-1.80;99.90
20380;DHT22;10349;48.666;8.948;2023-02-28T08:58:47;-1.80;99.90
20380;DHT22;10349;48.666;8.948;2023-02-28T09:01:19;-1.80;99.90
20380;DHT22;10349;48.666;8.948;2023-02-28T09:03:50;-1.80;99.90
20380;DHT22;10349;48.666;8.948;2023-02-28T09:06:21;-1.70;99.90
20380;DHT22;10349;48.666;8.948;2023-02-28T09:08:51;-1.80;99.90
20380;DHT22;10349;48.666;8.948;2023-02-28T09:11:17;-1.70;99.90
20380;DHT22;10349;48.666;8.948;2023-02-28T09:13:44;-1.70;99.90
20380;DHT22;10349;48.666;8.948;2023-02-28T09:16:13;-1.70;99.90
20380;DHT22;10349;48.666;8.948;2023-02-28T09:18:39;-1.70;99.90
20380;DHT22;10349;48.666;8.948;2023-02-28T09:21:07;-1.70;99.90
20380;DHT22;10349;48.666;8.948;2023-02-28T09:23:33;-1.60;99.90
20380;DHT22;10349;48.666;8.948;2023-02-28T09:26:03;-1.60;99.90
20380;DHT22;10349;48.666;8.948;2023-02-28T09:28:30;-1.50;99.90
20380;DHT22;10349;48.666;8.948;2023-02-28T09:30:56;-1.60;99.90
20380;DHT22;10349;48.666;8.948;2023-02-28T09:33:25;-1.60;99.90
20380;DHT22;10349;48.666;8.948;2023-02-28T09:35:58;-1.50;99.90
20380;DHT22;10349;48.666;8.948;2023-02-28T09:38:24;-1.50;99.90
20380;DHT22;10349;48.666;8.948;2023-02-28T09:40:58;-1.40;99.90
20380;DHT22;10349;48.666;8.948;2023-02-28T09:43:33;-1.40;99.90
20380;DHT22;10349;48.666;8.948;2023-02-28T09:46:08;-1.30;99.90
20380;DHT22;10349;48.666;8.948;2023-02-28T09:51:40;-1.10;99.90
20380;DHT22;10349;48.666;8.948;2023-02-28T09:54:21;-1.10;99.90
20380;DHT22;10349;48.666;8.948;2023-02-28T09:57:04;-1.10;99.90
20380;DHT22;10349;48.666;8.948;2023-02-28T10:02:31;-1.20;99.90
20380;DHT22;10349;48.666;8.948;2023-02-28T10:10:26;-1.00;99.90
20380;DHT22;10349;48.666;8.948;2023-02-28T10:12:57;-1.00;99.90
20380;DHT22;10349;48.666;8.948;2023-02-28T10:15:26;-1.00;99.90
20380;DHT22;10349;48.666;8.948;2023-02-28T10:18:11;-1.00;99.90
20380;DHT22;10349;48.666;8.948;2023-02-28T10:20:40;-1.00;99.90
20380;DHT22;10349;48.666;8.948;2023-02-28T10:23:28;-1.00;99.90
20380;DHT22;10349;48.666;8.948;2023-02-28T10:26:14;-0.90;99.90
20380;DHT22;10349;48.666;8.948;2023-02-28T10:28:43;-0.80;99.90
20380;DHT22;10349;48.666;8.948;2023-02-28T10:31:16;-0.90;99.90
20380;DHT22;10349;48.666;8.948;2023-02-28T10:33:42;-0.80;99.90
20380;DHT22;10349;48.666;8.948;2023-02-28T10:36:15;-0.80;99.90
20380;DHT22;10349;48.666;8.948;2023-02-28T10:38:43;-0.80;99.90
20380;DHT22;10349;48.666;8.948;2023-02-28T10:41:14;-0.90;99.90
20380;DHT22;10349;48.666;8.948;2023-02-28T10:43:42;-0.80;99.90
20380;DHT22;10349;48.666;8.948;2023-02-28T10:48:37;-0.70;99.90
20380;DHT22;10349;48.666;8.948;2023-02-28T10:51:04;-0.70;99.90
20380;DHT22;10349;48.666;8.948;2023-02-28T10:53:37;-0.50;99.90
20380;DHT22;10349;48.666;8.948;2023-02-28T10:58:58;-0.40;99.90
20380;DHT22;10349;48.666;8.948;2023-02-28T11:01:40;-0.40;99.90
20380;DHT22;10349;48.666;8.948;2023-02-28T11:04:39;-0.20;99.90
20380;DHT22;10349;48.666;8.948;2023-02-28T11:07:09;-0.20;99.90
20380;DHT22;10349;48.666;8.948;2023-02-28T11:09:44;-0.20;99.90
20380;DHT22;10349;48.666;8.948;2023-02-28T11:14:58;-0.20;99.90
20380;DHT22;10349;48.666;8.948;2023-02-28T11:17:30;-0.10;99.90
20380;DHT22;10349;48.666;8.948;2023-02-28T11:20:05;0.00;99.90
20380;DHT22;10349;48.666;8.948;2023-02-28T11:22:39;0.10;99.90
20380;DHT22;10349;48.666;8.948;2023-02-28T11:25:30;0.10;99.90
20380;DHT22;10349;48.666;8.948;2023-02-28T11:27:58;0.20;99.90
20380;DHT22;10349;48.666;8.948;2023-02-28T11:30:39;0.30;99.90
20380;DHT22;10349;48.666;8.948;2023-02-28T11:33:29;0.40;99.90
20380;DHT22;10349;48.666;8.948;2023-02-28T11:36:00;0.50;99.90
20380;DHT22;10349;48.666;8.948;2023-02-28T11:38:26;0.60;99.90
20380;DHT22;10349;48.666;8.948;2023-02-28T11:41:05;0.70;99.90
20380;DHT22;10349;48.666;8.948;2023-02-28T11:46:51;0.70;99.90
20380;DHT22;10349;48.666;8.948;2023-02-28T11:49:45;0.80;99.90
20380;DHT22;10349;48.666;8.948;2023-02-28T11:52:53;0.70;99.90
20380;DHT22;10349;48.666;8.948;2023-02-28T11:58:25;1.00;99.90
20380;DHT22;10349;48.666;8.948;2023-02-28T12:01:09;1.20;99.90
20380;DHT22;10349;48.666;8.948;2023-02-28T12:06:28;1.30;99.90
20380;DHT22;10349;48.666;8.948;2023-02-28T12:19:12;2.20;99.90
20380;DHT22;10349;48.666;8.948;2023-02-28T12:24:50;2.70;99.90
20380;DHT22;10349;48.666;8.948;2023-02-28T12:27:15;2.60;99.90
20380;DHT22;10349;48.666;8.948;2023-02-28T12:29:54;2.60;99.90
20380;DHT22;10349;48.666;8.948;2023-02-28T12:32:38;2.40;99.90
20380;DHT22;10349;48.666;8.948;2023-02-28T12:35:15;2.40;99.90
20380;DHT22;10349;48.666;8.948;2023-02-28T12:38:12;2.30;99.90
20380;DHT22;10349;48.666;8.948;2023-02-28T12:43:22;2.10;99.90
20380;DHT22;10349;48.666;8.948;2023-02-28T12:45:57;2.00;99.90
20380;DHT22;10349;48.666;8.948;2023-02-28T12:48:29;1.90;99.90
20380;DHT22;10349;48.666;8.948;2023-02-28T12:50:57;1.80;99.90
20380;DHT22;10349;48.666;8.948;2023-02-28T12:53:35;1.50;99.90
20380;DHT22;10349;48.666;8.948;2023-02-28T12:56:33;1.40;99.90
20380;DHT22;10349;48.666;8.948;2023-02-28T12:59:14;1.60;99.90
20380;DHT22;10349;48.666;8.948;2023-02-28T13:09:37;2.20;99.90
20380;DHT22;10349;48.666;8.948;2023-02-28T13:12:13;2.30;99.90
20380;DHT22;10349;48.666;8.948;2023-02-28T13:14:39;2.40;99.90
20380;DHT22;10349;48.666;8.948;2023-02-28T13:22:37;2.90;99.90
20380;DHT22;10349;48.666;8.948;2023-02-28T13:31:14;2.90;99.90
20380;DHT22;10349;48.666;8.948;2023-02-28T13:38:48;3.10;99.90
20380;DHT22;10349;48.666;8.948;2023-02-28T13:44:06;3.20;99.90
20380;DHT22;10349;48.666;8.948;2023-02-28T13:46:35;3.30;99.90
20380;DHT22;10349;48.666;8.948;2023-02-28T13:54:58;3.30;99.90
20380;DHT22;10349;48.666;8.948;2023-02-28T14:00:57;3.10;99.90
20380;DHT22;10349;48.666;8.948;2023-02-28T14:03:41;3.00;99.90
20380;DHT22;10349;48.666;8.948;2023-02-28T14:11:41;3.10;99.90
20380;DHT22;10349;48.666;8.948;2023-02-28T14:14:09;3.10;99.90
20380;DHT22;10349;48.666;8.948;2023-02-28T14:16:54;3.10;99.90
20380;DHT22;10349;48.666;8.948;2023-02-28T14:19:26;3.20;99.90
20380;DHT22;10349;48.666;8.948;2023-02-28T14:30:36;3.40;99.90
20380;DHT22;10349;48.666;8.948;2023-02-28T14:36:07;3.30;99.90
20380;DHT22;10349;48.666;8.948;2023-02-28T14:38:41;3.20;99.90
20380;DHT22;10349;48.666;8.948;2023-02-28T14:41:20;3.20;99.90
20380;DHT22;10349;48.666;8.948;2023-02-28T14:43:52;3.20;99.90
20380;DHT22;10349;48.666;8.948;2023-02-28T14:46:18;3.10;99.90
20380;DHT22;10349;48.666;8.948;2023-02-28T14:48:49;3.20;99.90
20380;DHT22;10349;48.666;8.948;2023-02-28T14:51:21;3.30;99.90
20380;DHT22;10349;48.666;8.948;2023-02-28T14:53:56;3.30;99.90
20380;DHT22;10349;48.666;8.948;2023-02-28T14:56:26;3.40;99.90
20380;DHT22;10349;48.666;8.948;2023-02-28T14:58:55;3.40;99.90
20380;DHT22;10349;48.666;8.948;2023-02-28T15:01:23;3.50;99.90
20380;DHT22;10349;48.666;8.948;2023-02-28T15:03:57;3.50;99.90
20380;DHT22;10349;48.666;8.948;2023-02-28T15:06:24;3.60;99.90
20380;DHT22;10349;48.666;8.948;2023-02-28T15:09:13;3.60;99.90
20380;DHT22;10349;48.666;8.948;2023-02-28T15:11:40;3.60;99.90
20380;DHT22;10349;48.666;8.948;2023-02-28T15:14:06;3.50;99.90
20380;DHT22;10349;48.666;8.948;2023-02-28T15:16:38;3.50;99.90
20380;DHT22;10349;48.666;8.948;2023-02-28T15:21:39;3.50;99.90
20380;DHT22;10349;48.666;8.948;2023-02-28T15:24:24;3.60;99.90
20380;DHT22;10349;48.666;8.948;2023-02-28T15:26:57;3.60;99.90
20380;DHT22;10349;48.666;8.948;2023-02-28T15:29:25;3.60;99.90
20380;DHT22;10349;48.666;8.948;2023-02-28T15:32:06;3.60;99.90
20380;DHT22;10349;48.666;8.948;2023-02-28T15:34:38;3.60;99.90
20380;DHT22;10349;48.666;8.948;2023-02-28T15:40:10;3.60;99.90
20380;DHT22;10349;48.666;8.948;2023-02-28T15:42:36;3.60;99.90
20380;DHT22;10349;48.666;8.948;2023-02-28T15:45:03;3.60;99.90
20380;DHT22;10349;48.666;8.948;2023-02-28T15:47:30;3.60;99.90
20380;DHT22;10349;48.666;8.948;2023-02-28T15:50:23;3.50;99.90
20380;DHT22;10349;48.666;8.948;2023-02-28T15:52:48;3.50;99.90
20380;DHT22;10349;48.666;8.948;2023-02-28T15:57:50;3.40;99.90
20380;DHT22;10349;48.666;8.948;2023-02-28T16:00:23;3.50;99.90
20380;DHT22;10349;48.666;8.948;2023-02-28T16:02:49;3.50;99.90
20380;DHT22;10349;48.666;8.948;2023-02-28T16:05:25;3.40;99.90
20380;DHT22;10349;48.666;8.948;2023-02-28T16:08:17;3.40;99.90
20380;DHT22;10349;48.666;8.948;2023-02-28T16:10:43;3.40;99.90
20380;DHT22;10349;48.666;8.948;2023-02-28T16:13:11;3.40;99.90
20380;DHT22;10349;48.666;8.948;2023-02-28T16:15:43;3.30;99.90
20380;DHT22;10349;48.666;8.948;2023-02-28T16:18:13;3.30;99.90
20380;DHT22;10349;48.666;8.948;2023-02-28T16:20:39;3.30;99.90
20380;DHT22;10349;48.666;8.948;2023-02-28T16:23:05;3.20;99.90
20380;DHT22;10349;48.666;8.948;2023-02-28T16:25:40;3.10;99.90
20380;DHT22;10349;48.666;8.948;2023-02-28T16:28:20;3.10;99.90
20380;DHT22;10349;48.666;8.948;2023-02-28T16:30:46;3.10;99.90
20380;DHT22;10349;48.666;8.948;2023-02-28T16:33:12;3.00;99.90
20380;DHT22;10349;48.666;8.948;2023-02-28T16:35:37;3.00;99.90
20380;DHT22;10349;48.666;8.948;2023-02-28T16:38:04;3.00;99.90
20380;DHT22;10349;48.666;8.948;2023-02-28T16:40:34;2.90;99.90
20380;DHT22;10349;48.666;8.948;2023-02-28T16:43:00;2.90;99.90
20380;DHT22;10349;48.666;8.948;2023-02-28T16:45:29;2.80;99.90
20380;DHT22;10349;48.666;8.948;2023-02-28T16:47:55;2.80;99.90
20380;DHT22;10349;48.666;8.948;2023-02-28T16:50:24;2.60;99.90
20380;DHT22;10349;48.666;8.948;2023-02-28T16:52:51;2.60;99.90
20380;DHT22;10349;48.666;8.948;2023-02-28T16:55:24;2.60;99.90
20380;DHT22;10349;48.666;8.948;2023-02-28T16:57:53;2.50;99.90
20380;DHT22;10349;48.666;8.948;2023-02-28T17:00:19;2.50;99.90
20380;DHT22;10349;48.666;8.948;2023-02-28T17:03:09;2.50;99.90
20380;DHT22;10349;48.666;8.948;2023-02-28T17:05:40;2.40;99.90
20380;DHT22;10349;48.666;8.948;2023-02-28T17:08:05;2.30;99.90
20380;DHT22;10349;48.666;8.948;2023-02-28T17:10:31;2.30;99.90
20380;DHT22;10349;48.666;8.948;2023-02-28T17:12:57;2.20;99.90
20380;DHT22;10349;48.666;8.948;2023-02-28T17:15:26;2.20;99.90
20380;DHT22;10349;48.666;8.948;2023-02-28T17:17:51;2.10;99.90
20380;DHT22;10349;48.666;8.948;2023-02-28T17:20:22;2.10;99.90
20380;DHT22;10349;48.666;8.948;2023-02-28T17:22:52;2.00;99.90
20380;DHT22;10349;48.666;8.948;2023-02-28T17:25:19;2.00;99.90
20380;DHT22;10349;48.666;8.948;2023-02-28T17:27:46;1.90;99.90
20380;DHT22;10349;48.666;8.948;2023-02-28T17:32:38;1.80;99.90
20380;DHT22;10349;48.666;8.948;2023-02-28T17:35:04;1.70;99.90
20380;DHT22;10349;48.666;8.948;2023-02-28T17:37:30;1.70;99.90
20380;DHT22;10349;48.666;8.948;2023-02-28T17:39:55;1.60;99.90
20380;DHT22;10349;48.666;8.948;2023-02-28T17:42:21;1.50;99.90
20380;DHT22;10349;48.666;8.948;2023-02-28T17:44:47;1.50;99.90
20380;DHT22;10349;48.666;8.948;2023-02-28T17:47:12;1.50;99.90
20380;DHT22;10349;48.666;8.948;2023-02-28T17:49:38;1.50;99.90
20380;DHT22;10349;48.666;8.948;2023-02-28T17:52:04;1.50;99.90
20380;DHT22;10349;48.666;8.948;2023-02-28T17:54:29;1.40;99.90
20380;DHT22;10349;48.666;8.948;2023-02-28T17:56:55;1.40;99.90
20380;DHT22;10349;48.666;8.948;2023-02-28T17:59:21;1.40;99.90
20380;DHT22;10349;48.666;8.948;2023-02-28T18:01:47;1.30;99.90
20380;DHT22;10349;48.666;8.948;2023-02-28T18:04:12;1.30;99.90
20380;DHT22;10349;48.666;8.948;2023-02-28T18:06:43;1.30;99.90
20380;DHT22;10349;48.666;8.948;2023-02-28T18:09:18;1.30;99.90
20380;DHT22;10349;48.666;8.948;2023-02-28T18:11:47;1.30;99.90